Bosco, Louisiana
Current Conditions -  °F | °C
As of 3:53 PM on Thursday 18 Dec 2014 (Local Time) from KMLU Reporting Station
Broken Clouds Broken Clouds  
Wind Chill: 54°   Ceiling: 3400
Heat Index: 54°   Visibility: 10mi
Dew Point: 46°   Wind: 6mph
Humidity: 75%   Direction: 20°NNE
Pressure: 30.14"   Gusts: NA
Location:  32.5324°N, 92.1046°W
Report Text: KMLU 182153Z 02005KT 10SM BKN034 BKN048 12/08 A3014 RMK AO2 SLP206 T01220078
Loading
Personal Weather Stations






























Interactive Weather Map New forecast layout! Learn more

10-Day Weather Forecast

Advertisements
Track Severe Weather on mobile